Time;durP1;ratioP1;P1;durP2;ratioP2;P2;SDS_P1;SDS_P2;PMS_P1;PMS_P2;Temp;Humidity;BMP_temperature;BMP_pressure;BME280_temperature;BME280_humidity;BME280_pressure;Samples;Min_cycle;Max_cycle;Signal;HPM_P1;HPM_P2
2022/03/14 00:00:17;;;;;;;10.48;7.13;;;8.80;86.20;;;;;;6240757;22;20053;-57
2022/03/14 00:02:43;;;;;;;10.77;7.65;;;8.80;86.60;;;;;;6268623;22;20050;-57
2022/03/14 00:05:10;;;;;;;11.68;7.68;;;8.80;86.90;;;;;;6267833;22;20498;-58
2022/03/14 00:07:37;;;;;;;11.77;6.80;;;8.70;87.50;;;;;;6267011;22;20016;-58
2022/03/14 00:10:04;;;;;;;9.90;8.05;;;8.70;87.90;;;;;;6267627;22;20027;-57
2022/03/14 00:12:31;;;;;;;8.23;6.75;;;8.70;88.50;;;;;;6268343;22;20090;-56
2022/03/14 00:15:03;;;;;;;15.77;8.23;;;9.00;88.90;;;;;;6267570;22;20024;-57
2022/03/14 00:17:29;;;;;;;12.30;7.65;;;8.60;88.80;;;;;;6267630;22;20015;-58
2022/03/14 00:19:57;;;;;;;12.30;7.97;;;8.50;89.50;;;;;;6268082;22;20050;-58
2022/03/14 00:22:23;;;;;;;12.35;8.82;;;8.50;90.20;;;;;;6267978;22;20128;-57
2022/03/14 00:24:49;;;;;;;11.98;8.38;;;8.50;90.30;;;;;;6268778;22;20022;-56
2022/03/14 00:27:15;;;;;;;13.57;9.07;;;8.50;90.70;;;;;;6268275;22;20019;-57
2022/03/14 00:29:41;;;;;;;14.05;9.23;;;8.50;90.80;;;;;;6267977;22;20022;-56
2022/03/14 00:32:07;;;;;;;14.68;9.43;;;8.60;91.00;;;;;;6268011;22;20349;-67
2022/03/14 00:34:33;;;;;;;12.52;8.35;;;8.60;91.20;;;;;;6268188;22;20020;-56
2022/03/14 00:36:59;;;;;;;13.10;9.15;;;8.60;91.50;;;;;;6241339;22;20024;-57
2022/03/14 00:39:24;;;;;;;14.27;8.82;;;8.60;91.70;;;;;;6267073;22;20015;-57
2022/03/14 00:41:50;;;;;;;12.02;8.18;;;8.60;91.90;;;;;;6240871;22;20508;-57
2022/03/14 00:44:17;;;;;;;22.67;9.85;;;8.60;92.00;;;;;;6268258;22;20019;-58
2022/03/14 00:46:44;;;;;;;12.90;8.88;;;8.60;92.30;;;;;;6268343;22;20102;-56
2022/03/14 00:49:11;;;;;;;11.00;8.10;;;8.60;92.50;;;;;;6267625;22;20054;-57
2022/03/14 00:51:37;;;;;;;14.32;8.95;;;8.60;92.50;;;;;;6267300;22;20016;-59
2022/03/14 00:54:04;;;;;;;13.65;9.00;;;8.80;92.90;;;;;;6267116;22;20023;-58
2022/03/14 00:56:30;;;;;;;12.77;8.93;;;8.50;93.00;;;;;;6240670;22;20024;-59
2022/03/14 00:58:58;;;;;;;14.77;9.30;;;8.50;93.30;;;;;;6267233;22;20544;-57
2022/03/14 01:01:25;;;;;;;15.88;8.80;;;8.40;93.60;;;;;;6267436;22;20634;-57
2022/03/14 01:03:51;;;;;;;14.40;9.57;;;8.40;93.80;;;;;;6268133;22;20477;-59
2022/03/14 01:06:16;;;;;;;12.85;8.82;;;8.40;94.10;;;;;;6267822;22;20020;-59
2022/03/14 01:08:42;;;;;;;14.00;8.73;;;8.30;94.40;;;;;;6267925;22;20028;-60
2022/03/14 01:11:08;;;;;;;12.38;8.05;;;8.20;94.70;;;;;;6267493;22;20023;-60
2022/03/14 01:13:33;;;;;;;11.63;8.77;;;8.40;94.90;;;;;;6268277;22;20386;-59
2022/03/14 01:15:59;;;;;;;13.48;8.65;;;8.10;94.90;;;;;;6268223;22;20019;-59
2022/03/14 01:18:25;;;;;;;13.00;8.55;;;8.10;95.00;;;;;;6267798;22;20020;-59
2022/03/14 01:20:51;;;;;;;17.45;9.88;;;9.10;95.60;;;;;;6267849;22;20097;-56
2022/03/14 01:23:17;;;;;;;14.48;9.50;;;8.10;95.50;;;;;;6267825;22;20487;-60
2022/03/14 01:25:45;;;;;;;12.57;8.88;;;8.10;95.80;;;;;;6267354;22;20020;-60
2022/03/14 01:28:11;;;;;;;13.18;9.00;;;8.10;96.00;;;;;;6240991;22;20024;-57
2022/03/14 01:30:38;;;;;;;15.50;10.73;;;8.10;96.20;;;;;;6267450;22;20120;-57
2022/03/14 01:33:04;;;;;;;13.48;8.75;;;8.10;96.50;;;;;;6267225;22;20039;-57
2022/03/14 01:35:29;;;;;;;13.52;9.32;;;8.10;96.80;;;;;;6267555;22;20454;-57
2022/03/14 01:37:57;;;;;;;11.73;8.75;;;8.20;96.90;;;;;;6267398;22;20458;-61
2022/03/14 01:40:24;;;;;;;11.65;8.25;;;8.20;97.00;;;;;;6267113;22;20027;-57
2022/03/14 01:42:50;;;;;;;13.43;7.90;;;8.20;97.20;;;;;;6267320;22;20023;-58
2022/03/14 01:45:17;;;;;;;13.02;8.18;;;8.20;97.60;;;;;;6267225;22;20062;-63
2022/03/14 01:47:44;;;;;;;13.77;9.30;;;8.20;98.10;;;;;;6267078;22;20023;-57
2022/03/14 01:50:11;;;;;;;14.90;9.07;;;8.20;98.50;;;;;;6266511;22;20099;-61
2022/03/14 01:52:37;;;;;;;11.65;7.97;;;8.50;99.00;;;;;;6240036;22;20025;-58
2022/03/14 01:55:03;;;;;;;12.50;8.63;;;8.20;99.20;;;;;;6267335;22;20142;-57
2022/03/14 01:57:30;;;;;;;12.57;8.77;;;8.20;99.10;;;;;;6266650;22;20019;-57
2022/03/14 01:59:56;;;;;;;13.73;8.98;;;8.20;99.50;;;;;;6266340;22;20497;-60
2022/03/14 02:02:22;;;;;;;12.93;8.88;;;8.20;99.90;;;;;;6263400;22;20053;-56
2022/03/14 02:04:48;;;;;;;10.82;7.70;;;8.20;99.90;;;;;;6266765;22;20020;-57
2022/03/14 02:07:13;;;;;;;15.98;8.93;;;8.20;99.90;;;;;;6266846;22;20020;-57
2022/03/14 02:09:39;;;;;;;10.90;8.25;;;8.30;99.90;;;;;;6266140;22;20027;-56
2022/03/14 02:12:08;;;;;;;10.73;7.57;;;8.20;99.90;;;;;;6266285;22;20015;-56
2022/03/14 02:14:39;;;;;;;13.88;8.43;;;8.20;99.90;;;;;;6265929;22;20350;-58
2022/03/14 02:17:12;;;;;;;12.80;8.32;;;8.20;99.90;;;;;;6266994;22;20024;-58
2022/03/14 02:19:39;;;;;;;11.13;7.93;;;8.20;99.90;;;;;;6266588;22;20023;-57
2022/03/14 02:22:07;;;;;;;10.18;7.50;;;9.40;99.90;;;;;;6239231;22;20022;-57
2022/03/14 02:24:32;;;;;;;13.18;8.63;;;8.30;99.90;;;;;;6266246;22;20027;-56
2022/03/14 02:26:58;;;;;;;11.20;7.05;;;8.30;99.90;;;;;;6266644;22;20026;-56
2022/03/14 02:29:24;;;;;;;14.40;8.98;;;8.30;99.90;;;;;;6238637;22;20069;-57
2022/03/14 02:31:51;;;;;;;14.32;8.40;;;8.30;99.90;;;;;;6266133;22;20023;-56
2022/03/14 02:34:17;;;;;;;13.02;8.05;;;8.30;99.90;;;;;;6266674;22;20015;-56
2022/03/14 02:36:43;;;;;;;13.60;8.35;;;8.30;99.90;;;;;;6266464;22;20015;-56
2022/03/14 02:39:09;;;;;;;12.65;7.57;;;8.30;99.90;;;;;;6266369;22;20019;-57
2022/03/14 02:41:36;;;;;;;11.57;8.60;;;8.40;99.90;;;;;;6266658;22;20015;-56
2022/03/14 02:44:06;;;;;;;12.60;7.88;;;8.40;99.90;;;;;;6214063;22;20454;-57
2022/03/14 02:46:38;;;;;;;10.73;7.88;;;8.30;99.90;;;;;;6239690;22;20037;-56
2022/03/14 02:49:09;;;;;;;12.63;8.40;;;8.40;99.90;;;;;;6266904;22;20338;-57
2022/03/14 02:51:38;;;;;;;12.43;8.63;;;8.40;99.90;;;;;;6267198;22;20042;-56
2022/03/14 02:54:09;;;;;;;10.18;7.70;;;8.40;99.90;;;;;;6266524;22;20026;-57
2022/03/14 02:56:36;;;;;;;10.82;7.72;;;8.30;99.90;;;;;;6266560;22;20090;-57
2022/03/14 02:59:03;;;;;;;9.48;7.10;;;8.30;99.90;;;;;;6265708;22;20398;-57
2022/03/14 03:01:29;;;;;;;13.15;7.63;;;8.40;99.90;;;;;;6266441;22;20022;-57
2022/03/14 03:03:54;;;;;;;9.75;6.47;;;8.40;99.90;;;;;;6266135;22;20087;-57
2022/03/14 03:06:22;;;;;;;11.05;7.85;;;8.70;99.90;;;;;;6266491;22;20022;-56
2022/03/14 03:08:52;;;;;;;9.23;6.95;;;8.40;99.90;;;;;;6266609;22;20030;-56
2022/03/14 03:11:18;;;;;;;8.63;6.88;;;8.40;99.90;;;;;;6238940;22;20054;-57
2022/03/14 03:13:46;;;;;;;9.07;6.43;;;8.40;99.90;;;;;;6266675;22;20456;-58
2022/03/14 03:16:16;;;;;;;9.70;6.50;;;8.40;99.90;;;;;;6239576;22;20351;-57
2022/03/14 03:18:45;;;;;;;10.38;7.10;;;8.40;99.90;;;;;;6265470;22;20036;-57
2022/03/14 03:21:12;;;;;;;9.00;6.22;;;8.40;99.90;;;;;;6266395;22;20054;-64
2022/03/14 03:23:38;;;;;;;11.15;6.20;;;8.40;99.90;;;;;;6266656;22;20031;-62
2022/03/14 03:26:05;;;;;;;8.43;6.05;;;8.40;99.90;;;;;;6268198;22;20087;-56
2022/03/14 03:28:37;;;;;;;7.72;5.25;;;8.50;99.90;;;;;;6268849;22;20083;-56
2022/03/14 03:31:21;;;;;;;7.80;5.68;;;8.50;99.90;;;;;;6241009;22;20020;-56
2022/03/14 03:33:50;;;;;;;7.38;5.28;;;8.50;99.90;;;;;;6268804;22;20023;-56
2022/03/14 03:36:15;;;;;;;8.85;5.45;;;8.50;99.90;;;;;;6240753;22;20023;-57
2022/03/14 03:38:41;;;;;;;6.53;4.95;;;8.50;99.90;;;;;;6240130;22;20035;-56
2022/03/14 03:41:07;;;;;;;6.32;5.43;;;8.50;99.90;;;;;;6267441;22;20012;-56
2022/03/14 03:43:33;;;;;;;6.85;4.43;;;8.50;99.90;;;;;;6268524;22;20020;-57
2022/03/14 03:45:59;;;;;;;6.55;4.85;;;8.60;99.90;;;;;;6267965;22;20399;-56
2022/03/14 03:48:25;;;;;;;6.68;4.57;;;9.80;99.90;;;;;;6241340;22;20020;-56
2022/03/14 03:50:50;;;;;;;7.20;5.03;;;8.60;99.90;;;;;;6240169;22;20030;-56
2022/03/14 03:53:16;;;;;;;8.32;5.43;;;8.60;99.90;;;;;;6267549;22;20015;-57
2022/03/14 03:55:42;;;;;;;5.88;4.30;;;9.00;99.90;;;;;;6267623;22;20023;-57
2022/03/14 03:58:07;;;;;;;7.68;4.07;;;8.60;99.90;;;;;;6267179;22;20480;-56
2022/03/14 04:00:33;;;;;;;6.53;3.80;;;8.70;99.90;;;;;;6266155;22;20094;-56
2022/03/14 04:02:59;;;;;;;7.28;4.32;;;8.70;99.90;;;;;;6267467;22;20103;-56
2022/03/14 04:05:27;;;;;;;5.45;4.13;;;8.80;99.90;;;;;;6264466;22;20326;-56
2022/03/14 04:07:58;;;;;;;5.95;3.90;;;8.70;99.90;;;;;;6268177;22;20346;-57
2022/03/14 04:10:28;;;;;;;5.60;4.05;;;8.70;99.90;;;;;;6267043;22;20381;-56
2022/03/14 04:12:57;;;;;;;5.35;3.88;;;8.70;99.90;;;;;;6268437;22;20396;-56
2022/03/14 04:15:23;;;;;;;5.88;4.30;;;8.70;99.90;;;;;;6267690;22;20116;-57
2022/03/14 04:17:50;;;;;;;5.55;3.50;;;8.80;99.90;;;;;;6267938;22;20035;-56
2022/03/14 04:20:16;;;;;;;7.15;4.75;;;9.00;99.90;;;;;;6268133;22;20099;-56
2022/03/14 04:22:41;;;;;;;5.15;3.78;;;9.40;99.90;;;;;;6240903;22;20055;-56
2022/03/14 04:25:11;;;;;;;6.30;4.30;;;9.10;99.90;;;;;;6267988;22;20226;-56
2022/03/14 04:27:37;;;;;;;5.82;3.55;;;8.80;99.90;;;;;;6268581;22;20023;-56
2022/03/14 04:30:03;;;;;;;5.28;3.53;;;8.80;99.90;;;;;;6268616;22;20311;-56
2022/03/14 04:32:29;;;;;;;4.32;3.47;;;8.80;99.90;;;;;;6267218;22;20016;-57
2022/03/14 04:34:55;;;;;;;5.03;3.75;;;8.80;99.90;;;;;;6267581;22;20027;-57
2022/03/14 04:37:21;;;;;;;5.20;3.42;;;8.80;99.90;;;;;;6239301;22;20027;-56
2022/03/14 04:39:46;;;;;;;5.05;3.45;;;8.80;99.90;;;;;;6267064;22;20095;-57
2022/03/14 04:42:16;;;;;;;4.47;3.72;;;8.80;99.90;;;;;;6267044;22;20446;-56
2022/03/14 04:44:44;;;;;;;5.13;3.53;;;8.90;99.90;;;;;;6268319;22;20023;-56
2022/03/14 04:47:10;;;;;;;6.03;3.65;;;8.80;99.90;;;;;;6267208;22;20473;-57
2022/03/14 04:49:36;;;;;;;5.20;3.30;;;8.80;99.90;;;;;;6266721;22;20023;-60
2022/03/14 04:52:02;;;;;;;5.43;3.63;;;8.80;99.90;;;;;;6238847;22;20022;-57
2022/03/14 04:54:27;;;;;;;4.38;3.30;;;8.80;99.90;;;;;;6239917;22;20082;-60
2022/03/14 04:56:54;;;;;;;4.28;3.63;;;8.80;99.90;;;;;;6239225;22;20020;-60
2022/03/14 04:59:20;;;;;;;3.55;2.78;;;8.70;99.90;;;;;;6267086;22;20395;-59
2022/03/14 05:01:46;;;;;;;5.43;3.28;;;8.70;99.90;;;;;;6267208;22;20146;-57
2022/03/14 05:04:12;;;;;;;5.13;3.42;;;8.70;99.90;;;;;;6266614;22;20145;-57
2022/03/14 05:06:37;;;;;;;6.78;2.83;;;9.40;99.90;;;;;;6267399;22;20783;-56
2022/03/14 05:09:04;;;;;;;3.67;2.83;;;8.80;99.90;;;;;;6266705;22;20020;-56
2022/03/14 05:11:29;;;;;;;6.40;3.53;;;8.80;99.90;;;;;;6266600;22;20450;-57
2022/03/14 05:13:55;;;;;;;3.10;2.75;;;8.80;99.90;;;;;;6239142;22;20144;-57
2022/03/14 05:16:21;;;;;;;4.53;3.13;;;8.90;99.90;;;;;;6240353;22;20081;-57
2022/03/14 05:18:47;;;;;;;3.35;2.33;;;8.80;99.90;;;;;;6267784;22;20019;-57
2022/03/14 05:21:13;;;;;;;4.13;3.08;;;8.80;99.90;;;;;;6267403;22;20353;-57
2022/03/14 05:23:40;;;;;;;3.45;2.92;;;9.10;99.90;;;;;;6267021;22;20102;-58
2022/03/14 05:26:06;;;;;;;2.85;2.10;;;8.90;99.90;;;;;;6239751;22;20023;-59
2022/03/14 05:28:32;;;;;;;4.32;2.33;;;8.80;99.90;;;;;;6267065;22;20065;-56
2022/03/14 05:30:58;;;;;;;2.95;2.50;;;8.90;99.90;;;;;;6267058;22;20038;-56
2022/03/14 05:33:24;;;;;;;4.13;3.17;;;8.90;99.90;;;;;;6238757;22;20502;-65
2022/03/14 05:35:51;;;;;;;3.17;2.65;;;8.90;99.90;;;;;;6239486;22;20024;-57
2022/03/14 05:38:17;;;;;;;4.53;3.03;;;9.10;99.90;;;;;;6267366;22;20073;-62
2022/03/14 05:40:42;;;;;;;4.45;2.88;;;8.90;99.90;;;;;;6266997;22;20483;-58
2022/03/14 05:43:10;;;;;;;4.45;3.15;;;8.90;99.90;;;;;;6267145;22;20030;-59
2022/03/14 05:45:35;;;;;;;3.67;2.70;;;9.30;99.90;;;;;;6267252;22;20533;-59
2022/03/14 05:48:02;;;;;;;4.10;3.00;;;9.20;99.90;;;;;;6267125;22;20058;-57
2022/03/14 05:50:27;;;;;;;3.30;2.70;;;8.90;99.90;;;;;;6267714;22;20015;-56
2022/03/14 05:52:54;;;;;;;3.75;2.55;;;8.80;99.90;;;;;;6267111;22;20055;-56
2022/03/14 05:55:20;;;;;;;3.13;2.67;;;8.90;99.90;;;;;;6266488;22;20015;-56
2022/03/14 05:57:46;;;;;;;3.72;2.53;;;8.80;99.90;;;;;;6266822;22;20047;-57
2022/03/14 06:00:13;;;;;;;4.10;3.00;;;8.80;99.90;;;;;;6266882;22;20369;-56
2022/03/14 06:02:47;;;;;;;6.32;2.78;;;8.80;99.90;;;;;;6267288;22;20618;-56
2022/03/14 06:05:13;;;;;;;3.78;2.80;;;8.80;99.90;;;;;;6266381;22;20346;-56
2022/03/14 06:07:40;;;;;;;4.68;3.05;;;9.00;99.90;;;;;;6265396;22;20626;-56
2022/03/14 06:10:07;;;;;;;3.22;2.85;;;8.80;99.90;;;;;;6267348;22;20019;-61
2022/03/14 06:12:33;;;;;;;5.38;2.95;;;8.80;99.90;;;;;;6267078;22;20020;-57
2022/03/14 06:15:00;;;;;;;4.78;2.90;;;8.80;99.90;;;;;;6266532;22;20138;-57
2022/03/14 06:17:26;;;;;;;3.10;2.80;;;8.80;99.90;;;;;;6267594;22;20019;-57
2022/03/14 06:19:52;;;;;;;3.90;2.75;;;8.80;99.90;;;;;;6266623;22;20517;-57
2022/03/14 06:22:19;;;;;;;3.10;2.60;;;8.80;99.90;;;;;;6266974;22;20502;-57
2022/03/14 06:24:47;;;;;;;4.30;3.25;;;8.80;99.90;;;;;;6266329;22;20465;-56
2022/03/14 06:27:15;;;;;;;4.97;4.15;;;8.80;99.90;;;;;;6266954;22;20069;-57
2022/03/14 06:29:42;;;;;;;3.33;2.58;;;9.30;99.90;;;;;;6239690;22;20030;-56
2022/03/14 06:32:09;;;;;;;3.50;2.47;;;8.80;99.90;;;;;;6267362;22;20019;-57
2022/03/14 06:34:35;;;;;;;2.95;2.28;;;8.90;99.90;;;;;;6265851;22;20019;-56
2022/03/14 06:37:01;;;;;;;3.92;3.17;;;9.70;99.90;;;;;;6266447;22;20335;-56
2022/03/14 06:39:26;;;;;;;3.28;2.67;;;8.90;99.90;;;;;;6266134;22;20446;-56
2022/03/14 06:41:52;;;;;;;3.22;2.40;;;8.90;99.90;;;;;;6266573;22;20103;-57
2022/03/14 06:44:19;;;;;;;3.70;2.63;;;9.00;99.90;;;;;;6267266;22;20438;-57
2022/03/14 06:46:45;;;;;;;3.33;2.58;;;9.00;99.90;;;;;;6267634;22;20015;-57
2022/03/14 06:49:14;;;;;;;3.30;2.45;;;9.60;99.90;;;;;;6268095;22;20015;-58
2022/03/14 06:51:43;;;;;;;5.68;2.35;;;9.10;99.90;;;;;;6238770;22;20073;-57
2022/03/14 06:54:09;;;;;;;4.60;3.28;;;9.10;99.90;;;;;;6265907;22;20062;-56
2022/03/14 06:56:37;;;;;;;3.40;2.45;;;9.10;99.90;;;;;;6265890;22;20011;-58
2022/03/14 06:59:03;;;;;;;3.38;2.65;;;9.10;99.90;;;;;;6238501;22;20027;-56
2022/03/14 07:01:30;;;;;;;3.55;2.45;;;9.20;99.90;;;;;;6214264;22;20026;-58
2022/03/14 07:03:56;;;;;;;3.78;2.38;;;9.20;99.90;;;;;;6238892;22;20485;-57
2022/03/14 07:06:22;;;;;;;3.55;2.75;;;9.20;99.90;;;;;;6265379;22;20051;-55
2022/03/14 07:08:47;;;;;;;3.15;2.28;;;9.20;99.90;;;;;;6264645;22;20110;-56
2022/03/14 07:11:13;;;;;;;3.63;2.67;;;9.30;99.90;;;;;;6262898;22;20086;-56
2022/03/14 07:13:39;;;;;;;2.47;2.28;;;9.40;99.90;;;;;;6234179;22;20020;-57
2022/03/14 07:16:04;;;;;;;2.75;2.38;;;9.20;99.90;;;;;;6260771;22;20012;-56
2022/03/14 07:18:30;;;;;;;5.13;3.08;;;9.30;99.90;;;;;;6263056;22;20473;-57
2022/03/14 07:20:57;;;;;;;4.57;2.40;;;9.30;99.90;;;;;;6263688;22;20022;-57
2022/03/14 07:23:23;;;;;;;4.28;2.60;;;9.30;99.90;;;;;;6263502;22;20557;-57
2022/03/14 07:25:50;;;;;;;2.97;2.38;;;9.50;99.90;;;;;;6212095;22;20106;-57
2022/03/14 07:28:17;;;;;;;3.65;2.85;;;9.30;99.90;;;;;;6264084;22;20082;-57
2022/03/14 07:30:42;;;;;;;3.17;2.50;;;9.30;99.90;;;;;;6264645;22;20043;-56
2022/03/14 07:33:08;;;;;;;5.75;2.88;;;9.50;99.90;;;;;;6265118;22;20528;-57
2022/03/14 07:35:35;;;;;;;2.50;1.98;;;9.50;99.90;;;;;;6238125;22;20031;-57
2022/03/14 07:38:01;;;;;;;2.40;2.10;;;9.60;99.90;;;;;;6265726;22;20016;-59
2022/03/14 07:40:27;;;;;;;3.90;2.60;;;9.60;99.90;;;;;;6265720;22;20101;-58
2022/03/14 07:42:55;;;;;;;6.35;3.42;;;9.80;99.90;;;;;;6266428;22;20016;-59
2022/03/14 07:45:24;;;;;;;5.05;2.92;;;9.60;99.90;;;;;;6265592;22;20018;-58
2022/03/14 07:47:50;;;;;;;3.80;2.40;;;9.70;99.90;;;;;;6265381;22;20487;-60
2022/03/14 07:50:18;;;;;;;3.20;2.15;;;9.70;99.90;;;;;;6263980;22;20012;-59
2022/03/14 07:52:45;;;;;;;2.75;2.40;;;9.80;99.90;;;;;;6266046;22;20015;-59
2022/03/14 07:55:11;;;;;;;3.70;2.40;;;9.80;99.90;;;;;;6265844;22;20019;-60
2022/03/14 07:57:39;;;;;;;3.00;2.47;;;9.90;99.90;;;;;;6265825;22;20031;-58
2022/03/14 08:00:11;;;;;;;4.82;2.60;;;8.60;99.90;;;;;;6265285;22;20020;-59
2022/03/14 08:02:37;;;;;;;4.20;3.08;;;9.90;99.90;;;;;;6265954;22;20098;-60
2022/03/14 08:05:05;;;;;;;3.10;2.65;;;10.00;99.90;;;;;;6265046;22;20096;-68
2022/03/14 08:07:31;;;;;;;3.53;2.70;;;10.10;99.90;;;;;;6237535;22;20350;-67
2022/03/14 08:09:57;;;;;;;3.85;3.03;;;10.10;99.90;;;;;;6264788;22;20489;-57
2022/03/14 08:12:23;;;;;;;3.97;2.70;;;10.40;99.90;;;;;;6266988;22;20024;-65
2022/03/14 08:14:50;;;;;;;4.00;3.15;;;10.10;99.90;;;;;;6263418;22;20022;-57
2022/03/14 08:17:19;;;;;;;3.97;2.80;;;10.20;99.90;;;;;;6264991;22;20073;-57
2022/03/14 08:19:45;;;;;;;3.42;2.90;;;10.20;99.90;;;;;;6265347;22;20103;-60
2022/03/14 08:22:11;;;;;;;2.97;2.33;;;10.20;99.90;;;;;;6266094;22;20114;-57
2022/03/14 08:24:37;;;;;;;3.53;3.05;;;10.10;99.90;;;;;;6239664;22;20019;-58
2022/03/14 08:27:03;;;;;;;3.20;2.88;;;10.30;99.90;;;;;;6264085;22;20055;-58
2022/03/14 08:29:29;;;;;;;3.58;2.42;;;10.40;99.90;;;;;;6265424;22;20055;-56
2022/03/14 08:31:58;;;;;;;3.42;3.10;;;10.50;99.90;;;;;;6236603;22;20324;-60
2022/03/14 08:34:25;;;;;;;2.90;2.60;;;10.50;99.90;;;;;;6265533;22;20023;-60
2022/03/14 08:36:51;;;;;;;4.32;3.10;;;10.40;99.90;;;;;;6265725;22;20454;-59
2022/03/14 08:39:17;;;;;;;4.30;3.38;;;10.50;99.90;;;;;;6239198;22;20015;-58
2022/03/14 08:41:43;;;;;;;3.65;3.20;;;10.90;99.90;;;;;;6266111;22;20541;-60
2022/03/14 08:44:09;;;;;;;4.47;3.53;;;10.60;99.90;;;;;;6266731;22;20065;-71
2022/03/14 08:46:35;;;;;;;3.42;3.13;;;10.60;99.90;;;;;;6265740;22;20090;-64
2022/03/14 08:49:01;;;;;;;4.03;2.70;;;10.70;99.90;;;;;;6267078;22;20012;-66
2022/03/14 08:51:27;;;;;;;5.88;3.58;;;10.70;99.90;;;;;;6266335;22;20569;-66
2022/03/14 08:53:54;;;;;;;4.88;3.60;;;10.80;99.90;;;;;;6267241;22;20026;-62
2022/03/14 08:56:20;;;;;;;3.85;3.28;;;10.80;99.90;;;;;;6263447;22;20413;-63
2022/03/14 08:58:46;;;;;;;3.40;3.08;;;10.90;99.90;;;;;;6263875;22;20108;-57
2022/03/14 09:01:12;;;;;;;5.13;3.53;;;10.90;99.90;;;;;;6264883;22;20015;-56
2022/03/14 09:03:42;;;;;;;3.88;3.03;;;10.90;99.90;;;;;;6263149;22;20459;-57
2022/03/14 09:06:08;;;;;;;3.78;3.22;;;10.90;99.90;;;;;;6265660;22;20019;-57
2022/03/14 09:08:34;;;;;;;3.25;2.95;;;11.00;99.90;;;;;;6262635;22;20038;-57
2022/03/14 09:11:01;;;;;;;4.03;3.17;;;10.90;99.90;;;;;;6264925;22;20020;-57
2022/03/14 09:13:27;;;;;;;4.53;3.35;;;11.00;99.90;;;;;;6237216;22;20085;-56
2022/03/14 09:15:53;;;;;;;3.53;2.83;;;11.00;99.90;;;;;;6265891;22;20023;-59
2022/03/14 09:18:20;;;;;;;5.68;3.75;;;11.10;99.90;;;;;;6238286;22;20093;-57
2022/03/14 09:20:49;;;;;;;3.60;3.20;;;11.10;99.90;;;;;;6239207;22;20085;-57
2022/03/14 09:23:20;;;;;;;4.68;3.88;;;11.20;99.90;;;;;;6263827;22;20022;-57
2022/03/14 09:25:47;;;;;;;3.55;3.25;;;11.20;99.90;;;;;;6263856;22;20121;-57
2022/03/14 09:28:15;;;;;;;4.13;3.38;;;11.20;99.90;;;;;;6264783;22;20015;-57
2022/03/14 09:30:41;;;;;;;3.78;3.45;;;11.20;99.90;;;;;;6266661;22;20142;-58
2022/03/14 09:33:07;;;;;;;4.28;3.80;;;11.30;99.90;;;;;;6265306;22;20497;-58
2022/03/14 09:35:34;;;;;;;4.15;3.70;;;11.30;99.90;;;;;;6237764;22;20027;-57
2022/03/14 09:38:00;;;;;;;4.28;3.63;;;11.30;99.90;;;;;;6237790;22;20504;-59
2022/03/14 09:40:30;;;;;;;6.95;4.32;;;11.30;99.90;;;;;;6266490;22;20073;-58
2022/03/14 09:42:59;;;;;;;5.38;3.75;;;11.40;99.90;;;;;;6267577;22;20026;-59
2022/03/14 09:45:26;;;;;;;5.22;4.15;;;11.40;99.90;;;;;;6239233;22;20023;-59
2022/03/14 09:47:57;;;;;;;4.57;4.00;;;11.40;99.90;;;;;;6265601;22;20020;-60
2022/03/14 09:50:34;;;;;;;5.07;4.32;;;11.40;99.90;;;;;;6266447;22;20022;-59
2022/03/14 09:53:06;;;;;;;5.00;4.13;;;11.40;99.90;;;;;;6266353;22;20359;-65
2022/03/14 09:55:41;;;;;;;4.85;4.00;;;11.50;99.90;;;;;;6266609;22;20016;-70
2022/03/14 09:58:18;;;;;;;4.70;3.88;;;11.60;99.90;;;;;;6266179;22;20019;-65
2022/03/14 10:00:46;;;;;;;5.13;3.95;;;11.50;99.90;;;;;;6267333;22;20027;-59
2022/03/14 10:03:13;;;;;;;4.60;3.45;;;11.60;99.90;;;;;;6266506;22;20024;-57
2022/03/14 10:05:39;;;;;;;4.10;3.70;;;11.70;99.90;;;;;;6265806;22;20092;-57
2022/03/14 10:08:05;;;;;;;6.32;3.92;;;11.60;99.90;;;;;;6263620;22;20399;-57
2022/03/14 10:10:31;;;;;;;4.25;3.83;;;11.70;99.90;;;;;;6264036;22;20016;-56
2022/03/14 10:12:57;;;;;;;5.75;4.10;;;11.60;99.90;;;;;;6263220;22;20027;-56
2022/03/14 10:15:27;;;;;;;4.88;3.70;;;11.70;99.90;;;;;;6263686;22;20012;-57
2022/03/14 10:17:57;;;;;;;5.22;4.22;;;11.70;99.90;;;;;;6264591;22;20023;-57
2022/03/14 10:20:24;;;;;;;4.50;3.75;;;11.70;99.90;;;;;;6265749;22;20015;-57
2022/03/14 10:22:50;;;;;;;6.07;4.45;;;11.70;99.90;;;;;;6266149;22;20031;-56
2022/03/14 10:25:20;;;;;;;6.53;5.03;;;11.60;99.90;;;;;;6265987;22;20020;-56
2022/03/14 10:27:56;;;;;;;7.35;4.38;;;11.60;99.90;;;;;;6237086;22;20030;-57
2022/03/14 10:30:32;;;;;;;6.88;5.30;;;11.50;99.90;;;;;;6264269;22;20458;-56
2022/03/14 10:33:12;;;;;;;6.85;5.47;;;11.50;99.90;;;;;;6265193;22;20114;-56
2022/03/14 10:35:43;;;;;;;8.40;6.45;;;11.40;99.90;;;;;;6264881;22;20406;-56
2022/03/14 10:38:11;;;;;;;8.20;6.65;;;11.30;99.90;;;;;;6238107;22;20174;-56
2022/03/14 10:40:42;;;;;;;10.52;6.45;;;11.20;99.90;;;;;;6265384;22;20545;-56
2022/03/14 10:43:20;;;;;;;12.05;7.68;;;11.00;99.90;;;;;;6266265;22;20499;-56
2022/03/14 10:45:46;;;;;;;16.08;8.10;;;10.70;99.90;;;;;;6238403;22;20051;-60
2022/03/14 10:48:12;;;;;;;8.63;6.22;;;10.50;99.90;;;;;;6265681;22;20024;-57
2022/03/14 10:50:41;;;;;;;10.00;7.25;;;10.40;99.90;;;;;;6265503;22;20027;-56
2022/03/14 10:53:12;;;;;;;12.85;8.48;;;10.50;99.90;;;;;;6263680;22;20377;-58
2022/03/14 10:55:58;;;;;;;10.82;8.02;;;10.30;99.90;;;;;;6264194;22;20072;-59
2022/03/14 10:58:33;;;;;;;11.43;7.53;;;10.20;99.90;;;;;;6264726;22;20019;-57
2022/03/14 11:01:07;;;;;;;10.65;7.15;;;10.30;99.90;;;;;;6237561;22;20026;-56
2022/03/14 11:03:41;;;;;;;13.10;7.18;;;10.30;99.90;;;;;;6265359;22;20030;-59
2022/03/14 11:06:09;;;;;;;12.38;7.10;;;10.40;99.90;;;;;;6265697;22;20024;-56
2022/03/14 11:08:36;;;;;;;11.60;7.80;;;10.70;99.90;;;;;;6265314;22;20458;-59
2022/03/14 11:11:08;;;;;;;15.63;7.18;;;10.60;99.90;;;;;;6265369;22;20027;-59
2022/03/14 11:13:48;;;;;;;13.63;7.93;;;10.60;99.90;;;;;;6266469;22;20099;-57
2022/03/14 11:16:22;;;;;;;14.98;8.95;;;10.60;99.90;;;;;;6264223;22;20020;-56
2022/03/14 11:18:49;;;;;;;14.82;7.78;;;10.70;99.90;;;;;;6264568;22;20559;-57
2022/03/14 11:21:20;;;;;;;11.80;7.82;;;10.80;99.90;;;;;;6265623;22;20015;-57
2022/03/14 11:23:48;;;;;;;18.27;8.02;;;10.90;99.90;;;;;;6237540;22;20023;-57
2022/03/14 11:26:16;;;;;;;10.85;6.53;;;10.80;99.90;;;;;;6262971;22;20019;-62
2022/03/14 11:28:46;;;;;;;13.55;8.40;;;10.90;99.90;;;;;;6265420;22;20034;-59
2022/03/14 11:31:12;;;;;;;11.98;8.02;;;11.00;99.90;;;;;;6265143;22;20015;-61
2022/03/14 11:33:38;;;;;;;11.63;7.30;;;11.10;99.90;;;;;;6260611;22;20416;-56
2022/03/14 11:36:05;;;;;;;11.73;7.57;;;11.20;99.90;;;;;;6260846;22;20503;-58
2022/03/14 11:38:32;;;;;;;10.77;7.53;;;11.00;99.90;;;;;;6260494;22;20468;-61
2022/03/14 11:41:00;;;;;;;11.75;7.82;;;10.90;99.90;;;;;;6260911;22;20592;-58
2022/03/14 11:43:26;;;;;;;14.65;8.80;;;11.00;99.90;;;;;;6262563;22;20069;-59
2022/03/14 11:45:53;;;;;;;14.30;8.77;;;11.30;99.90;;;;;;6261259;22;20024;-69
2022/03/14 11:48:20;;;;;;;12.05;7.78;;;11.30;99.90;;;;;;6236551;22;20442;-67
2022/03/14 11:50:55;;;;;;;11.98;7.40;;;11.30;99.90;;;;;;6263886;22;20084;-64
2022/03/14 11:53:31;;;;;;;14.30;8.10;;;11.50;99.90;;;;;;6264316;22;20668;-63
2022/03/14 11:55:59;;;;;;;14.98;6.82;;;11.30;99.90;;;;;;6264129;22;20722;-70
2022/03/14 11:58:42;;;;;;;12.95;7.28;;;11.20;99.90;;;;;;6263260;22;20799;-68
2022/03/14 12:01:28;;;;;;;13.55;6.50;;;11.30;99.90;;;;;;6264412;22;20117;-62
2022/03/14 12:03:56;;;;;;;11.10;7.07;;;11.30;99.90;;;;;;6264111;22;20124;-58
2022/03/14 12:06:45;;;;;;;15.13;6.82;;;11.30;99.90;;;;;;6264379;22;20019;-64
2022/03/14 12:09:10;;;;;;;13.90;7.70;;;11.20;99.90;;;;;;6206286;22;20016;-61
2022/03/14 12:11:41;;;;;;;15.10;7.85;;;11.10;99.90;;;;;;6263935;22;20468;-65
2022/03/14 12:14:12;;;;;;;12.00;6.50;;;11.20;99.90;;;;;;6264039;22;20429;-57
2022/03/14 12:16:44;;;;;;;13.00;6.50;;;11.20;99.90;;;;;;6264224;22;20117;-62
2022/03/14 12:19:29;;;;;;;15.20;7.55;;;11.00;99.90;;;;;;6263269;22;20019;-65
2022/03/14 12:21:55;;;;;;;;;;;11.30;99.90;;;;;;6261390;22;20107;-56
2022/03/14 12:24:45;;;;;;;17.60;7.30;;;11.30;99.90;;;;;;6264329;22;20292;-57
2022/03/14 12:27:24;;;;;;;14.10;6.70;;;11.30;99.90;;;;;;6264420;22;20015;-57
2022/03/14 12:29:52;;;;;;;11.45;5.95;;;11.30;99.90;;;;;;6262604;22;20335;-62
2022/03/14 12:32:48;;;;;;;11.80;6.15;;;11.20;99.90;;;;;;6263442;22;20019;-56
2022/03/14 12:35:17;;;;;;;14.23;7.50;;;11.20;99.90;;;;;;6190227;23;20032;-58
2022/03/14 12:37:47;;;;;;;11.55;6.47;;;11.00;99.90;;;;;;6232686;22;20098;-56
2022/03/14 12:40:18;;;;;;;10.20;7.07;;;11.00;99.90;;;;;;6232853;23;20329;-67
2022/03/14 12:42:46;;;;;;;11.82;5.32;;;10.90;99.90;;;;;;6204883;23;20024;-62
2022/03/14 12:45:29;;;;;;;14.57;6.50;;;10.90;99.90;;;;;;6201805;23;20522;-60
2022/03/14 12:48:02;;;;;;;11.27;6.47;;;10.90;99.90;;;;;;6232416;23;20462;-57
2022/03/14 12:50:43;;;;;;;8.45;5.18;;;10.80;99.90;;;;;;6205602;23;20038;-56
2022/03/14 12:53:10;;;;;;;9.77;5.68;;;11.00;99.90;;;;;;6232509;23;20384;-57